createdAt,value
2022-10-19T00:01:01.563Z,10.02
2022-10-19T00:03:29.656Z,9.63
2022-10-19T00:05:56.958Z,11.55
2022-10-19T00:08:24.630Z,10.85
2022-10-19T00:10:51.945Z,10.48
2022-10-19T00:13:19.105Z,10.13
2022-10-19T00:15:46.363Z,10.68
2022-10-19T00:18:13.674Z,8.48
2022-10-19T00:20:40.869Z,9.65
2022-10-19T00:23:08.098Z,10.30
2022-10-19T00:25:36.878Z,10.30
2022-10-19T00:28:04.129Z,11.68
2022-10-19T00:30:31.455Z,10.35
2022-10-19T00:32:58.627Z,10.65
2022-10-19T00:35:25.797Z,10.95
2022-10-19T00:37:53.083Z,10.30
2022-10-19T00:40:20.319Z,10.52
2022-10-19T00:42:47.557Z,12.23
2022-10-19T00:45:16.496Z,11.52
2022-10-19T00:47:44.233Z,9.38
2022-10-19T00:50:11.836Z,9.88
2022-10-19T00:52:39.052Z,11.55
2022-10-19T00:55:07.791Z,11.23
2022-10-19T00:57:35.449Z,13.32
2022-10-19T01:00:05.333Z,11.38
2022-10-19T01:02:32.939Z,8.23
2022-10-19T01:05:00.441Z,9.95
2022-10-19T01:07:27.822Z,9.82
2022-10-19T01:09:55.407Z,9.50
2022-10-19T01:12:32.486Z,7.70
2022-10-19T01:14:59.762Z,12.23
2022-10-19T01:17:39.338Z,10.65
2022-10-19T01:20:09.501Z,8.32
2022-10-19T01:22:36.717Z,9.40
2022-10-19T01:25:06.903Z,8.98
2022-10-19T01:27:34.400Z,7.38
2022-10-19T01:30:03.568Z,9.45
2022-10-19T01:32:30.724Z,10.20
2022-10-19T01:35:08.849Z,6.82
2022-10-19T01:37:56.370Z,7.93
2022-10-19T01:40:42.976Z,7.50
2022-10-19T01:43:13.780Z,8.02
2022-10-19T01:45:48.330Z,7.50
2022-10-19T01:48:21.509Z,7.30
2022-10-19T01:50:53.146Z,9.25
2022-10-19T01:53:21.288Z,8.18
2022-10-19T01:55:50.740Z,7.15
2022-10-19T01:58:19.834Z,5.93
2022-10-19T02:00:47.673Z,6.57
2022-10-19T02:03:15.839Z,6.65
2022-10-19T02:05:44.909Z,7.25
2022-10-19T02:08:13.857Z,7.28
2022-10-19T02:10:42.898Z,6.13
2022-10-19T02:13:10.442Z,8.73
2022-10-19T02:15:40.221Z,5.65
2022-10-19T02:18:07.560Z,5.10
2022-10-19T02:20:36.959Z,7.00
2022-10-19T02:23:07.532Z,7.07
2022-10-19T02:25:34.921Z,8.65
2022-10-19T02:28:03.369Z,8.63
2022-10-19T02:30:30.700Z,6.82
2022-10-19T02:32:57.956Z,8.05
2022-10-19T02:35:25.214Z,8.57
2022-10-19T02:37:52.470Z,6.43
2022-10-19T02:40:19.981Z,9.70
2022-10-19T02:42:55.037Z,10.60
2022-10-19T02:45:29.841Z,6.05
2022-10-19T02:48:05.734Z,8.02
2022-10-19T02:50:33.061Z,8.05
2022-10-19T02:53:00.629Z,5.80
2022-10-19T02:55:28.854Z,7.47
2022-10-19T02:57:57.256Z,7.65
2022-10-19T03:00:24.417Z,7.32
2022-10-19T03:02:51.918Z,7.72
2022-10-19T03:05:19.097Z,7.25
2022-10-19T03:07:46.857Z,5.65
2022-10-19T03:10:14.085Z,5.75
2022-10-19T03:12:41.304Z,6.53
2022-10-19T03:15:08.805Z,4.45
2022-10-19T03:17:36.350Z,9.27
2022-10-19T03:20:03.908Z,5.97
2022-10-19T03:22:31.196Z,5.05
2022-10-19T03:24:58.383Z,5.90
2022-10-19T03:27:25.594Z,5.97
2022-10-19T03:29:52.863Z,7.40
2022-10-19T03:32:20.053Z,7.38
2022-10-19T03:34:47.285Z,6.20
2022-10-19T03:37:15.277Z,6.05
2022-10-19T03:39:42.484Z,6.82
2022-10-19T03:42:09.761Z,6.10
2022-10-19T03:44:36.952Z,8.65
2022-10-19T03:47:04.143Z,7.53
2022-10-19T03:49:31.404Z,6.25
2022-10-19T03:51:58.618Z,7.00
2022-10-19T03:54:27.423Z,7.05
2022-10-19T03:56:54.800Z,6.38
2022-10-19T03:59:23.011Z,4.47
2022-10-19T04:01:50.250Z,5.53
2022-10-19T04:04:18.260Z,5.65
2022-10-19T04:06:48.809Z,8.43
2022-10-19T04:09:17.822Z,5.88
2022-10-19T04:11:45.187Z,5.57
2022-10-19T04:14:26.640Z,6.60
2022-10-19T04:17:00.693Z,4.55
2022-10-19T04:19:27.887Z,4.43
2022-10-19T04:21:55.089Z,5.30
2022-10-19T04:24:22.243Z,8.82
2022-10-19T04:26:53.723Z,4.97
2022-10-19T04:29:24.988Z,5.00
2022-10-19T04:31:55.250Z,6.13
2022-10-19T04:34:22.541Z,4.00
2022-10-19T04:36:50.335Z,7.00
2022-10-19T04:39:17.671Z,10.60
2022-10-19T04:41:44.860Z,6.43
2022-10-19T04:44:12.103Z,5.88
2022-10-19T04:46:39.445Z,5.95
2022-10-19T04:49:06.966Z,5.95
2022-10-19T04:51:34.285Z,6.13
2022-10-19T04:54:02.624Z,5.35
2022-10-19T04:56:30.841Z,12.48
2022-10-19T04:58:58.517Z,6.25
2022-10-19T05:01:26.738Z,3.85
2022-10-19T05:06:27.601Z,5.63
2022-10-19T05:08:55.177Z,4.30
2022-10-19T05:11:24.838Z,5.20
2022-10-19T05:13:52.122Z,7.95
2022-10-19T05:16:20.657Z,5.85
2022-10-19T05:18:48.909Z,5.05
2022-10-19T05:21:16.464Z,7.18
2022-10-19T05:23:43.805Z,6.93
2022-10-19T05:26:16.572Z,7.20
2022-10-19T05:28:44.038Z,6.22
2022-10-19T05:31:11.255Z,5.75
2022-10-19T05:33:38.927Z,4.95
2022-10-19T05:36:15.521Z,4.05
2022-10-19T05:38:43.307Z,5.40
2022-10-19T05:41:10.556Z,10.70
2022-10-19T05:43:37.835Z,6.22
2022-10-19T05:46:09.445Z,6.25
2022-10-19T05:48:38.213Z,3.75
2022-10-19T05:51:06.312Z,7.03
2022-10-19T05:53:34.726Z,5.72
2022-10-19T05:56:02.193Z,5.40
2022-10-19T05:58:30.679Z,5.68
2022-10-19T06:00:58.888Z,6.38
2022-10-19T06:03:26.268Z,5.05
2022-10-19T06:05:54.178Z,7.53
2022-10-19T06:08:21.874Z,7.35
2022-10-19T06:10:49.457Z,5.88
2022-10-19T06:13:17.250Z,6.63
2022-10-19T06:15:44.719Z,10.40
2022-10-19T06:18:13.076Z,5.93
2022-10-19T06:20:41.637Z,12.00
2022-10-19T06:23:09.205Z,11.35
2022-10-19T06:25:36.992Z,5.07
2022-10-19T06:28:04.596Z,5.25
2022-10-19T06:30:31.984Z,8.27
2022-10-19T06:32:59.968Z,7.03
2022-10-19T06:35:27.303Z,7.38
2022-10-19T06:37:57.512Z,8.55
2022-10-19T06:40:25.194Z,7.05
2022-10-19T06:42:52.670Z,7.32
2022-10-19T06:45:19.959Z,7.70
2022-10-19T06:50:20.548Z,5.13
2022-10-19T06:52:48.104Z,5.70
2022-10-19T06:55:17.072Z,8.77
2022-10-19T06:57:45.244Z,7.40
2022-10-19T07:00:12.886Z,7.20
2022-10-19T07:02:40.121Z,5.20
2022-10-19T07:05:07.921Z,7.25
2022-10-19T07:07:35.883Z,6.65
2022-10-19T07:10:03.679Z,5.93
2022-10-19T07:12:30.995Z,6.35
2022-10-19T07:14:58.224Z,6.10
2022-10-19T07:17:25.393Z,8.02
2022-10-19T07:19:52.613Z,6.65
2022-10-19T07:22:24.361Z,9.13
2022-10-19T07:24:54.665Z,6.88
2022-10-19T07:27:21.933Z,5.40
2022-10-19T07:29:49.122Z,12.15
2022-10-19T07:32:16.312Z,6.43
2022-10-19T07:34:45.620Z,6.93
2022-10-19T07:37:12.826Z,7.20
2022-10-19T07:39:40.043Z,8.57
2022-10-19T07:42:07.242Z,8.95
2022-10-19T07:44:34.542Z,10.90
2022-10-19T07:47:01.801Z,10.30
2022-10-19T07:49:29.087Z,5.78
2022-10-19T07:51:56.374Z,7.63
2022-10-19T07:54:24.602Z,6.20
2022-10-19T07:56:51.816Z,6.57
2022-10-19T07:59:19.320Z,6.38
2022-10-19T08:01:47.678Z,6.55
2022-10-19T08:07:02.145Z,5.28
2022-10-19T08:09:59.358Z,6.60
2022-10-19T08:12:17.657Z,7.05
2022-10-19T08:14:44.860Z,7.68
2022-10-19T08:17:16.541Z,8.07
2022-10-19T08:19:44.355Z,7.38
2022-10-19T08:22:11.646Z,7.53
2022-10-19T08:24:38.850Z,7.28
2022-10-19T08:27:06.240Z,10.18
2022-10-19T08:29:33.395Z,6.50
2022-10-19T08:32:00.630Z,6.97
2022-10-19T08:34:27.857Z,7.20
2022-10-19T08:36:55.091Z,9.18
2022-10-19T08:39:22.327Z,13.43
2022-10-19T08:41:58.688Z,9.60
2022-10-19T08:44:35.156Z,10.63
2022-10-19T08:47:02.756Z,9.75
2022-10-19T08:49:32.439Z,9.05
2022-10-19T08:52:01.398Z,11.07
2022-10-19T08:54:36.406Z,6.05
2022-10-19T08:57:12.696Z,7.47
2022-10-19T08:59:42.856Z,9.40
2022-10-19T09:02:17.638Z,8.93
2022-10-19T09:04:50.609Z,8.75
2022-10-19T09:07:22.949Z,8.50
2022-10-19T09:09:56.177Z,9.18
2022-10-19T09:12:36.336Z,7.75
2022-10-19T09:15:06.751Z,8.75
2022-10-19T09:17:34.220Z,9.38
2022-10-19T09:20:16.521Z,7.88
2022-10-19T09:25:17.388Z,8.07
2022-10-19T09:27:46.555Z,7.93
2022-10-19T09:30:19.285Z,6.53
2022-10-19T09:32:47.462Z,8.65
2022-10-19T09:35:17.801Z,10.55
2022-10-19T09:37:47.767Z,7.32
2022-10-19T09:40:22.272Z,7.80
2022-10-19T09:42:59.559Z,7.35
2022-10-19T09:45:33.091Z,8.07
2022-10-19T09:48:07.176Z,8.95
2022-10-19T09:53:06.526Z,10.40
2022-10-19T09:55:38.391Z,7.25
2022-10-19T09:58:14.874Z,8.45
2022-10-19T10:00:43.701Z,6.10
2022-10-19T10:03:30.011Z,5.38
2022-10-19T10:05:58.800Z,6.22
2022-10-19T10:08:31.400Z,7.68
2022-10-19T10:11:18.970Z,9.98
2022-10-19T10:13:50.646Z,7.35
2022-10-19T10:16:19.554Z,6.72
2022-10-19T10:18:51.662Z,8.65
2022-10-19T10:21:26.977Z,10.52
2022-10-19T10:24:00.727Z,7.75
2022-10-19T10:26:28.469Z,6.18
2022-10-19T10:28:57.926Z,5.47
2022-10-19T10:31:29.620Z,5.28
2022-10-19T10:34:12.329Z,4.97
2022-10-19T10:36:51.696Z,8.35
2022-10-19T10:39:19.129Z,6.38
2022-10-19T10:41:48.451Z,7.15
2022-10-19T10:46:59.489Z,6.50
2022-10-19T10:49:45.159Z,4.93
2022-10-19T10:52:14.759Z,3.35
2022-10-19T10:54:57.584Z,5.30
2022-10-19T10:57:26.267Z,5.45
2022-10-19T11:00:02.558Z,5.40
2022-10-19T11:02:38.871Z,5.45
2022-10-19T11:05:27.157Z,5.95
2022-10-19T11:07:56.585Z,4.05
2022-10-19T11:10:45.995Z,5.75
2022-10-19T11:13:24.624Z,6.50
2022-10-19T11:15:56.271Z,5.85
2022-10-19T11:18:26.572Z,8.63
2022-10-19T11:21:14.105Z,5.70
2022-10-19T11:23:48.098Z,7.00
2022-10-19T11:26:27.744Z,3.30
2022-10-19T11:28:54.932Z,4.75
2022-10-19T11:31:36.686Z,7.40
2022-10-19T11:34:26.050Z,5.60
2022-10-19T11:36:59.270Z,6.70
2022-10-19T11:39:26.480Z,4.97
2022-10-19T11:42:12.482Z,4.82
2022-10-19T11:44:45.789Z,7.00
2022-10-19T11:47:25.460Z,6.57
2022-10-19T11:49:55.761Z,5.25
2022-10-19T11:52:46.150Z,4.00
2022-10-19T11:55:23.622Z,5.55
2022-10-19T11:57:53.566Z,5.72
2022-10-19T12:00:38.256Z,6.28
2022-10-19T12:03:27.114Z,5.57
2022-10-19T12:06:03.966Z,5.72
2022-10-19T12:08:40.259Z,9.60
2022-10-19T12:11:27.763Z,3.75
2022-10-19T12:14:01.403Z,5.22
2022-10-19T12:16:32.551Z,6.40
2022-10-19T12:19:00.965Z,7.60
2022-10-19T12:21:36.781Z,4.78
2022-10-19T12:24:05.831Z,5.72
2022-10-19T12:26:36.230Z,6.80
2022-10-19T12:29:06.545Z,6.22
2022-10-19T12:31:34.188Z,5.80
2022-10-19T12:34:10.641Z,6.40
2022-10-19T12:36:38.025Z,6.30
2022-10-19T12:39:12.386Z,8.02
2022-10-19T12:41:52.215Z,4.07
2022-10-19T12:44:34.841Z,6.28
2022-10-19T12:47:09.361Z,7.03
2022-10-19T12:49:38.486Z,6.60
2022-10-19T12:52:07.900Z,7.00
2022-10-19T12:54:36.665Z,5.15
2022-10-19T12:57:05.056Z,7.05
2022-10-19T12:59:34.218Z,6.47
2022-10-19T13:02:02.767Z,7.80
2022-10-19T13:04:31.449Z,7.65
2022-10-19T13:06:58.845Z,8.50
2022-10-19T13:09:35.207Z,4.50
2022-10-19T13:12:22.194Z,5.22
2022-10-19T13:14:52.194Z,6.20
2022-10-19T13:17:34.796Z,7.47
2022-10-19T13:20:14.340Z,8.65
2022-10-19T13:23:11.197Z,5.97
2022-10-19T13:25:41.937Z,7.18
2022-10-19T13:28:15.145Z,5.93
2022-10-19T13:30:42.396Z,8.32
2022-10-19T13:33:25.203Z,9.23
2022-10-19T13:36:02.416Z,9.60
2022-10-19T13:38:40.237Z,8.45
2022-10-19T13:41:26.628Z,6.50
2022-10-19T13:43:57.049Z,7.25
2022-10-19T13:46:27.250Z,7.22
2022-10-19T13:48:54.471Z,6.22
2022-10-19T13:51:33.660Z,6.47
2022-10-19T13:54:12.837Z,8.77
2022-10-19T13:56:54.160Z,5.18
2022-10-19T13:59:42.927Z,6.93
2022-10-19T14:02:28.958Z,7.93
2022-10-19T14:05:14.870Z,7.93
2022-10-19T14:08:01.014Z,6.38
2022-10-19T14:10:33.052Z,5.22
2022-10-19T14:13:15.644Z,6.20
2022-10-19T14:15:51.610Z,8.63
2022-10-19T14:18:24.920Z,10.52
2022-10-19T14:20:59.876Z,5.78
2022-10-19T14:23:28.979Z,9.02
2022-10-19T14:25:56.205Z,9.52
2022-10-19T14:28:24.382Z,9.43
2022-10-19T14:30:56.138Z,4.65
2022-10-19T14:33:25.549Z,5.35
2022-10-19T14:35:53.427Z,4.43
2022-10-19T14:38:43.333Z,6.82
2022-10-19T14:41:19.829Z,6.40
2022-10-19T14:43:47.067Z,6.65
2022-10-19T14:46:15.589Z,6.35
2022-10-19T14:48:45.437Z,5.25
2022-10-19T14:51:31.486Z,4.35
2022-10-19T14:54:01.108Z,5.65
2022-10-19T14:56:37.267Z,7.40
2022-10-19T14:59:04.495Z,5.18
2022-10-19T15:01:31.819Z,6.50
2022-10-19T15:03:59.098Z,5.97
2022-10-19T15:06:31.001Z,3.42
2022-10-19T15:09:00.757Z,5.90
2022-10-19T15:11:30.043Z,6.55
2022-10-19T15:16:34.065Z,5.03
2022-10-19T15:19:12.060Z,7.15
2022-10-19T15:21:39.401Z,6.53
2022-10-19T15:24:08.361Z,8.15
2022-10-19T15:26:35.709Z,8.23
2022-10-19T15:29:20.865Z,7.85
2022-10-19T15:31:48.071Z,4.20
2022-10-19T15:34:41.904Z,8.10
2022-10-19T15:37:16.510Z,12.10
2022-10-19T15:39:45.691Z,10.48
2022-10-19T15:44:44.295Z,7.20
2022-10-19T15:47:20.377Z,5.43
2022-10-19T15:49:55.805Z,7.80
2022-10-19T15:52:24.097Z,7.90
2022-10-19T15:54:52.141Z,6.47
2022-10-19T15:57:25.102Z,4.63
2022-10-19T15:59:52.545Z,7.22
2022-10-19T16:02:19.720Z,6.15
2022-10-19T16:04:46.985Z,4.68
2022-10-19T16:07:20.890Z,6.45
2022-10-19T16:09:48.202Z,6.95
2022-10-19T16:12:18.361Z,7.35
2022-10-19T16:14:45.679Z,8.23
2022-10-19T16:17:13.690Z,6.03
2022-10-19T16:19:40.907Z,6.22
2022-10-19T16:22:08.203Z,9.90
2022-10-19T16:24:35.559Z,7.63
2022-10-19T16:27:03.001Z,7.70
2022-10-19T16:29:30.253Z,9.02
2022-10-19T16:32:00.230Z,7.00
2022-10-19T16:34:27.685Z,7.65
2022-10-19T16:36:54.972Z,7.55
2022-10-19T16:39:22.285Z,9.00
2022-10-19T16:41:49.545Z,11.30
2022-10-19T16:44:19.520Z,8.35
2022-10-19T16:46:46.876Z,9.57
2022-10-19T16:49:14.089Z,7.72
2022-10-19T16:51:41.946Z,12.73
2022-10-19T16:54:12.510Z,8.75
2022-10-19T16:56:44.559Z,8.55
2022-10-19T16:59:13.557Z,12.93
2022-10-19T17:01:40.976Z,9.65
2022-10-19T17:04:08.514Z,9.00
2022-10-19T17:06:36.313Z,10.93
2022-10-19T17:11:51.558Z,8.57
2022-10-19T17:14:18.763Z,9.93
2022-10-19T17:16:46.144Z,11.45
2022-10-19T17:19:13.497Z,9.90
2022-10-19T17:21:42.363Z,9.43
2022-10-19T17:26:38.897Z,9.73
2022-10-19T17:29:06.425Z,11.48
2022-10-19T17:31:33.725Z,10.93
2022-10-19T17:34:01.928Z,8.50
2022-10-19T17:36:30.711Z,9.82
2022-10-19T17:38:59.366Z,10.23
2022-10-19T17:41:27.269Z,8.55
2022-10-19T17:43:54.972Z,10.50
2022-10-19T17:46:26.582Z,9.18
2022-10-19T17:48:55.649Z,10.07
2022-10-19T17:51:24.345Z,13.30
2022-10-19T17:53:51.601Z,10.50
2022-10-19T17:56:20.299Z,10.07
2022-10-19T17:58:48.074Z,10.02
2022-10-19T18:01:15.939Z,12.68
2022-10-19T18:03:43.259Z,10.85
2022-10-19T18:06:14.785Z,11.25
2022-10-19T18:08:43.635Z,11.00
2022-10-19T18:11:12.559Z,11.70
2022-10-19T18:13:40.410Z,12.32
2022-10-19T18:16:16.732Z,12.32
2022-10-19T18:18:51.728Z,12.65
2022-10-19T18:21:20.929Z,11.93
2022-10-19T18:26:21.821Z,11.10
2022-10-19T18:28:49.557Z,10.85
2022-10-19T18:31:21.071Z,11.18
2022-10-19T18:33:49.901Z,13.45
2022-10-19T18:36:17.101Z,14.32
2022-10-19T18:38:44.780Z,12.68
2022-10-19T18:43:50.296Z,10.43
2022-10-19T18:46:18.898Z,12.23
2022-10-19T18:48:46.124Z,10.50
2022-10-19T18:51:15.261Z,9.82
2022-10-19T18:53:43.445Z,11.40
2022-10-19T18:56:11.831Z,10.85
2022-10-19T18:58:39.121Z,9.77
2022-10-19T19:01:13.681Z,11.18
2022-10-19T19:03:42.070Z,11.77
2022-10-19T19:06:13.503Z,9.82
2022-10-19T19:08:41.157Z,11.57
2022-10-19T19:11:14.619Z,11.55
2022-10-19T19:13:42.817Z,12.02
2022-10-19T19:16:10.273Z,11.13
2022-10-19T19:18:37.521Z,10.55
2022-10-19T19:21:05.429Z,9.65
2022-10-19T19:23:32.798Z,11.52
2022-10-19T19:25:59.998Z,11.38
2022-10-19T19:28:27.355Z,11.60
2022-10-19T19:30:54.589Z,11.27
2022-10-19T19:33:21.834Z,13.02
2022-10-19T19:35:50.360Z,12.32
2022-10-19T19:38:17.594Z,12.25
2022-10-19T19:40:46.070Z,11.65
2022-10-19T19:43:14.284Z,11.73
2022-10-19T19:45:41.825Z,11.23
2022-10-19T19:48:09.745Z,10.25
2022-10-19T19:50:38.228Z,12.40
2022-10-19T19:53:05.544Z,8.48
2022-10-19T19:55:38.126Z,10.48
2022-10-19T19:58:06.377Z,10.13
2022-10-19T20:00:33.640Z,10.05
2022-10-19T20:03:01.206Z,9.85
2022-10-19T20:05:28.522Z,10.63
2022-10-19T20:07:55.718Z,12.88
2022-10-19T20:10:24.979Z,8.90
2022-10-19T20:12:53.251Z,10.75
2022-10-19T20:15:20.665Z,10.50
2022-10-19T20:17:47.888Z,9.20
2022-10-19T20:20:17.870Z,10.38
2022-10-19T20:22:48.312Z,10.32
2022-10-19T20:25:15.814Z,10.10
2022-10-19T20:27:43.073Z,10.60
2022-10-19T20:30:10.609Z,12.68
2022-10-19T20:32:38.243Z,14.60
2022-10-19T20:35:07.483Z,10.65
2022-10-19T20:37:34.791Z,9.98
2022-10-19T20:40:08.150Z,8.55
2022-10-19T20:42:36.445Z,10.95
2022-10-19T20:45:04.353Z,12.55
2022-10-19T20:47:32.142Z,9.07
2022-10-19T20:49:59.417Z,9.18
2022-10-19T20:52:27.000Z,9.68
2022-10-19T20:54:54.260Z,10.75
2022-10-19T20:57:21.517Z,10.63
2022-10-19T20:59:50.000Z,11.68
2022-10-19T21:02:17.314Z,10.02
2022-10-19T21:04:44.585Z,10.25
2022-10-19T21:07:11.905Z,8.00
2022-10-19T21:09:39.164Z,10.88
2022-10-19T21:12:06.522Z,9.93
2022-10-19T21:14:33.853Z,8.75
2022-10-19T21:17:01.161Z,12.45
2022-10-19T21:19:29.462Z,8.18
2022-10-19T21:21:58.535Z,10.30
2022-10-19T21:24:27.648Z,11.15
2022-10-19T21:26:54.921Z,8.63
2022-10-19T21:29:22.296Z,9.68
2022-10-19T21:31:50.558Z,8.52
2022-10-19T21:34:22.601Z,11.70
2022-10-19T21:36:50.162Z,10.70
2022-10-19T21:39:17.702Z,11.43
2022-10-19T21:41:45.129Z,10.98
2022-10-19T21:44:12.735Z,10.25
2022-10-19T21:46:40.144Z,10.57
2022-10-19T21:49:07.458Z,9.02
2022-10-19T21:51:44.009Z,10.95
2022-10-19T21:54:16.114Z,9.82
2022-10-19T21:56:43.901Z,12.23
2022-10-19T21:59:12.105Z,9.18
2022-10-19T22:01:41.311Z,10.20
2022-10-19T22:04:11.614Z,10.27
2022-10-19T22:06:39.031Z,10.98
2022-10-19T22:09:07.607Z,11.38
2022-10-19T22:11:34.945Z,9.57
2022-10-19T22:14:03.021Z,11.82
2022-10-19T22:16:30.948Z,9.15
2022-10-19T22:18:58.168Z,9.82
2022-10-19T22:21:27.253Z,8.02
2022-10-19T22:24:05.432Z,9.95
2022-10-19T22:26:36.695Z,8.27
2022-10-19T22:29:05.427Z,9.23
2022-10-19T22:31:33.121Z,10.18
2022-10-19T22:34:01.285Z,14.13
2022-10-19T22:36:28.585Z,8.50
2022-10-19T22:38:55.799Z,11.00
2022-10-19T22:42:00.691Z,10.65
2022-10-19T22:44:46.543Z,7.97
2022-10-19T22:47:13.777Z,8.05
2022-10-19T22:49:40.971Z,9.93
2022-10-19T22:52:08.213Z,8.00
2022-10-19T22:54:35.456Z,8.10
2022-10-19T22:57:02.840Z,9.23
2022-10-19T22:59:30.148Z,9.15
2022-10-19T23:01:57.382Z,9.45
2022-10-19T23:04:24.704Z,9.13
2022-10-19T23:06:51.921Z,9.02
2022-10-19T23:09:19.113Z,10.55
2022-10-19T23:11:46.453Z,7.85
2022-10-19T23:14:13.640Z,11.10
2022-10-19T23:16:40.960Z,8.93
2022-10-19T23:19:08.208Z,8.77
2022-10-19T23:21:35.365Z,9.80
2022-10-19T23:24:02.584Z,9.57
2022-10-19T23:26:29.779Z,12.85
2022-10-19T23:28:57.036Z,8.52
2022-10-19T23:31:30.193Z,8.27
2022-10-19T23:33:57.503Z,9.35
2022-10-19T23:36:28.906Z,10.15
2022-10-19T23:38:56.899Z,10.07
2022-10-19T23:41:24.543Z,11.23
2022-10-19T23:43:51.748Z,9.10
2022-10-19T23:46:19.050Z,9.77
2022-10-19T23:48:46.311Z,9.15
2022-10-19T23:51:15.074Z,12.93
2022-10-19T23:53:43.905Z,9.20
2022-10-19T23:56:15.564Z,8.48
2022-10-19T23:58:43.080Z,9.93
